Messwerte Bilecik

Temperatur

Temperatur
°C
1575856800 5.00 5.00 0
1575860400 6.00 6.00 0
1575864000 7.00 7.00 0
1575867600 8.00 8.00 0
1575871200 9.00 9.00 0
1575874800 10.00 10.00 1
1575878400 11.00 11.00 4
1575882000 12.00 12.00 3
1575885600 13.00 13.00 4
1575889200 14.00 14.00 4
1575892800 15.00 15.00 5
1575896400 16.00 16.00 5
1575900000 17.00 17.00 5
1575903600 18.00 18.00 4
1575907200 19.00 19.00
1575910800 20.00 20.00
1575914400 21.00 21.00 3
1575918000 22.00 22.00
1575921600 23.00 23.00 2
1575925200 0.00 0.00
1575928800 1.00 1.00 2
1575932400 2.00 2.00 2
1575936000 3.00 3.00 2
1575939600 4.00 4.00 2

Aktuellste Messwerte

Wettercharakter
Wetter: bedeckt
Temperatur
2 °C
Feuchtigkeit
80 %
Wind
5 km/hWindrichtung: Nordost
Luftdruck
1016 hPa
Messzeit: 10. Dezember 2019, 5.00Datenquelle: METAR

Weitere Messstationen in der Nähe

Messstation Temperatur Entfernung
Bursa -1 °C 37 km
Eskisehir 2 °C 66 km
Topel Tur-Afb -1 °C 66 km
Istanbul / Sabiha Gökçen 5 °C 100 km
Istanbul 5 °C 133 km
Uşak - 171 km
Bandirma 4 °C 171 km

Wind

Windrichtung Böen Mittelwind
° km/h km/h
1575856800 5.00 4.00 - 5.00 290° 5
1575860400 6.00 5.00 - 6.00 0
1575864000 7.00 6.00 - 7.00 0
1575867600 8.00 7.00 - 8.00 0
1575871200 9.00 8.00 - 9.00 0
1575874800 10.00 9.00 - 10.00 40° 5
1575878400 11.00 10.00 - 11.00 5
1575882000 12.00 11.00 - 12.00 170° 5
1575885600 13.00 12.00 - 13.00 200° 5
1575889200 14.00 13.00 - 14.00 240° 5
1575892800 15.00 14.00 - 15.00 230° 5
1575896400 16.00 15.00 - 16.00 5
1575900000 17.00 16.00 - 17.00 0
1575903600 18.00 17.00 - 18.00 130° 5
1575907200 19.00 18.00 - 19.00
1575910800 20.00 19.00 - 20.00
1575914400 21.00 20.00 - 21.00 0
1575918000 22.00 21.00 - 22.00
1575921600 23.00 22.00 - 23.00 360° 5
1575925200 0.00 23.00 - 0.00
1575928800 1.00 0.00 - 1.00 20° 5
1575932400 2.00 1.00 - 2.00 20° 5
1575936000 3.00 2.00 - 3.00 10° 10
1575939600 4.00 3.00 - 4.00 10° 5

Ihre Wetterstation

Fehlt Ihre Wetterstation auf unserem Portal?

Schreiben Sie an network@meteonews.ch

Klima

Wann ist es am wärmsten? Wann regnet es am wenigsten? Unsere Klimadaten geben Auskunft.